Flight Track Log - Related Links

Times and Time Zones

All times are in EDT time to prevent confusion due to time zone crossing. See the N844JD flight status page for this flight to view local times or setup timezone preferences in your user account.

Time Position Orientation Groundspeed Altitude Reporting Facility
EDT Latitude Longitude Course Direction KTS MPH feet Rate Location/Type
Wed 12:48:22 PM 33.7667 -116.2667 343° North 257 296 7,900  Level Southern California TRACON
Wed 12:49:22 PM 33.8333 -116.3167 328° Northwest 288 331 9,100 875 Climbing Southern California TRACON
Wed 12:49:58 PM 33.8628 -116.3417 325° Northwest 276 318 9,300 1,714 Climbing Los Angeles Center
Wed 12:51:00 PM 33.9314 -116.3906 329° Northwest 282 325 11,900 1,742 Climbing Los Angeles Center
Wed 12:52:02 PM 33.9994 -116.4406 329° Northwest 283 326 12,900 968 Climbing Los Angeles Center
Wed 12:53:00 PM 34.3900 -116.6233 343° North  Level FlightAware Approximate
Wed 12:53:04 PM 34.0814 -116.5006 329° Northwest 288 331 13,900  Level Los Angeles Center
Wed 12:54:07 PM 34.1467 -116.5331 338° Northwest 289 333 14,500 1,584 Climbing Los Angeles Center
Wed 12:55:09 PM 34.2319 -116.5914 331° Northwest 296 341 17,200 2,855 Climbing Los Angeles Center
Wed 12:56:11 PM 34.3019 -116.6511 325° Northwest 306 352 20,400 2,661 Climbing Los Angeles Center
Wed 12:57:13 PM 34.3656 -116.7089 323° Northwest 289 333 22,700 1,887 Climbing Los Angeles Center
Wed 12:58:15 PM 34.3914 -116.8117 287° West 314 361 24,300 1,742 Climbing Los Angeles Center
Wed 12:59:17 PM 34.4203 -116.9142 289° West 320 368 26,300 1,742 Climbing Los Angeles Center
Wed 01:00:19 PM 34.4525 -117.0169 291° West 322 371 27,900 816 Climbing Los Angeles Center
Wed 01:01:22 PM 34.4819 -117.1481 285° West 336 387 28,000 384 Climbing Los Angeles Center
Wed 01:02:24 PM 34.5006 -117.2597 281° West 340 391 28,700 1,113 Climbing Los Angeles Center
Wed 01:03:26 PM 34.5189 -117.3708 281° West 338 389 30,300 1,452 Climbing Los Angeles Center
Wed 01:04:28 PM 34.5364 -117.4817 281° West 337 388 31,700 1,452 Climbing Los Angeles Center
Wed 01:05:30 PM 34.5544 -117.5922 281° West 336 387 33,300 1,452 Climbing Los Angeles Center
Wed 01:06:32 PM 34.5725 -117.7017 281° West 334 384 34,700 1,200 Climbing Los Angeles Center
Wed 01:07:35 PM 34.5897 -117.8089 281° West 325 374 35,800 1,008 Climbing Los Angeles Center
Wed 01:08:37 PM 34.6097 -117.9369 281° West 323 372 36,800 919 Climbing Los Angeles Center
Wed 01:09:39 PM 34.6306 -118.0483 283° West 332 382 37,700 581 Climbing Los Angeles Center
Wed 01:10:41 PM 34.6822 -118.1389 305° West 330 380 38,000 145 Climbing Los Angeles Center
Wed 01:11:43 PM 34.7450 -118.2286 310° West 344 396 38,000  Level Los Angeles Center
Wed 01:12:45 PM 34.8092 -118.3228 310° West 356 410 38,000  Level Los Angeles Center
Wed 01:14:56 PM 34.9553 -118.5319 310° West 359 413 38,000  Level Oakland Center
Wed 01:15:52 PM 35.0272 -118.6158 316° Northwest 362 417 38,000  Level Los Angeles Center
Wed 01:16:54 PM 35.1236 -118.6581 340° North 366 421 38,000  Level Los Angeles Center
Wed 01:17:56 PM 35.2258 -118.6942 344° North 380 437 38,000  Level Los Angeles Center
Wed 01:18:58 PM 35.3258 -118.7308 343° North 380 437 38,000  Level Los Angeles Center
Wed 01:20:00 PM 35.4264 -118.7686 343° North 380 437 38,000  Level Los Angeles Center
Wed 01:21:02 PM 35.5419 -118.8122 343° North 370 426 38,000  Level Los Angeles Center
Wed 01:22:04 PM 35.6433 -118.8492 344° North 374 430 38,000  Level Los Angeles Center
Wed 01:23:07 PM 35.7447 -118.8872 343° North 378 435 38,000  Level Los Angeles Center
Wed 01:24:09 PM 35.8464 -118.9256 343° North 379 436 38,000  Level Los Angeles Center
Wed 01:25:11 PM 35.9453 -118.9625 343° North 379 436 38,000  Level Los Angeles Center
Wed 01:26:13 PM 36.0456 -119.0017 342° North 378 435 38,000  Level Los Angeles Center
Wed 01:27:15 PM 36.1642 -119.0472 343° North 378 435 38,000  Level Los Angeles Center
Wed 01:28:13 PM 36.2625 -119.0844 343° North 376 433 38,000  Level Oakland Center
Wed 01:29:14 PM 36.3608 -119.1219 343° North 374 430 38,000  Level Oakland Center
Wed 01:30:16 PM 36.4586 -119.1592 343° North 373 429 38,000  Level Oakland Center
Wed 01:31:17 PM 36.5531 -119.1922 344° North 362 417 38,000  Level Oakland Center
Wed 01:32:18 PM 36.6514 -119.2303 343° North 365 420 38,000  Level Oakland Center
Wed 01:33:20 PM 36.7494 -119.2686 343° North 368 423 38,000  Level Oakland Center
Wed 01:34:21 PM 36.8472 -119.3067 343° North 368 423 38,000  Level Oakland Center
Wed 01:35:23 PM 36.9442 -119.3436 343° North 368 423 38,000  Level Oakland Center
Wed 01:36:24 PM 37.0603 -119.3889 343° North 367 422 38,000  Level Oakland Center
Wed 01:37:25 PM 37.1558 -119.4253 343° North 365 420 38,000  Level Oakland Center
Wed 01:38:27 PM 37.2522 -119.4639 342° North 363 418 38,000  Level Oakland Center
Wed 01:39:28 PM 37.3514 -119.5014 343° North 361 415 38,000  Level Oakland Center
Wed 01:40:30 PM 37.4481 -119.5400 342° North 361 415 38,000  Level Oakland Center
Wed 01:41:31 PM 37.5447 -119.5769 343° North 361 415 38,000  Level Oakland Center
Wed 01:42:33 PM 37.6397 -119.6150 342° North 359 413 38,000  Level Oakland Center
Wed 01:43:34 PM 37.7344 -119.6528 342° North 359 413 38,000  Level Oakland Center
Wed 01:44:36 PM 37.8292 -119.6889 343° North 356 410 38,000  Level Oakland Center
Wed 01:45:37 PM 37.9219 -119.7256 343° North 355 409 38,000  Level Oakland Center
Wed 01:46:38 PM 38.0353 -119.7711 342° North 354 407 38,000  Level Oakland Center
Wed 01:47:40 PM 38.1283 -119.8086 342° North 355 409 38,000  Level Oakland Center
Wed 01:48:41 PM 38.2236 -119.8461 343° North 355 409 38,000  Level Oakland Center
Wed 01:49:43 PM 38.3178 -119.8831 343° North 355 409 38,000  Level Oakland Center
Wed 01:50:44 PM 38.4100 -119.9208 342° North 354 407 38,000  Level Oakland Center
Wed 01:51:46 PM 38.5022 -119.9592 342° North 350 403 38,000  Level Oakland Center
Wed 01:52:48 PM 38.5972 -119.9961 343° North 352 405 38,000  Level Oakland Center
Wed 01:53:49 PM 38.6917 -120.0350 342° North 355 409 38,000  Level Oakland Center
Wed 01:54:51 PM 38.8053 -120.0808 343° North 356 410 38,000  Level Oakland Center
Wed 01:55:52 PM 38.8997 -120.1186 343° North 356 410 38,000  Level Oakland Center
Wed 01:56:54 PM 38.9942 -120.1575 342° North 356 410 38,000  Level Oakland Center
Wed 01:57:55 PM 39.0894 -120.1961 343° North 358 412 38,000  Level Oakland Center
Wed 01:58:57 PM 39.1853 -120.2353 342° North 358 412 38,000  Level Oakland Center
Wed 01:59:58 PM 39.2803 -120.2742 342° North 359 413 38,000  Level Oakland Center
Wed 02:01:00 PM 39.3758 -120.3144 342° North 359 413 38,000  Level Oakland Center
Wed 02:02:01 PM 39.4917 -120.3617 343° North 363 418 38,000 49 Level Oakland Center
Wed 02:03:03 PM 39.5875 -120.4022 342° North 362 417 38,100 537 Climbing Oakland Center
Wed 02:04:04 PM 39.6800 -120.4403 342° North 356 410 39,100 780 Climbing Oakland Center
Wed 02:05:06 PM 39.7708 -120.4783 342° North 343 395 39,700 341 Climbing Oakland Center
Wed 02:06:07 PM 39.8622 -120.5169 342° North 343 395 39,800 146 Climbing Oakland Center
Wed 02:07:09 PM 39.9544 -120.5550 342° North 344 396 40,000 98 Climbing Oakland Center
Wed 02:08:10 PM 40.0578 -120.5989 342° North 348 400 40,000  Level Oakland Center
Wed 02:09:12 PM 40.1489 -120.6369 342° North 347 399 40,000  Level Oakland Center
Wed 02:10:13 PM 40.2400 -120.6761 342° North 346 398 40,000  Level Oakland Center
Wed 02:11:15 PM 40.3322 -120.7150 342° North 348 400 40,000  Level Oakland Center
Wed 02:12:16 PM 40.4225 -120.7536 342° North 347 399 40,000  Level Oakland Center
Wed 02:13:18 PM 40.5119 -120.7931 341° North 344 396 40,000  Level Oakland Center
Wed 02:14:20 PM 40.6056 -120.8331 342° North 341 392 40,000  Level Oakland Center
Wed 02:15:13 PM 40.6992 -120.8714 343° North 342 394 40,000  Level Seattle Center
Wed 02:16:14 PM 40.7903 -120.9111 342° North 343 395 40,000  Level Seattle Center
Wed 02:17:15 PM 40.8800 -120.9503 342° North 343 395 40,000  Level Seattle Center
Wed 02:18:16 PM 40.9714 -120.9922 341° North 344 396 40,000  Level Seattle Center
Wed 02:19:18 PM 41.0642 -121.0317 342° North 347 399 40,000  Level Seattle Center
Wed 02:20:19 PM 41.1556 -121.0725 341° North 347 399 40,000  Level Seattle Center
Wed 02:21:20 PM 41.2511 -121.1119 343° North 353 406 40,000  Level Seattle Center
Wed 02:22:21 PM 41.3442 -121.1531 342° North 354 407 40,000  Level Seattle Center
Wed 02:23:22 PM 41.4572 -121.2028 342° North 355 409 40,000  Level Seattle Center
Wed 02:24:23 PM 41.5511 -121.2461 341° North 356 410 40,000  Level Seattle Center
Wed 02:25:25 PM 41.6450 -121.2881 342° North 356 410 40,000  Level Seattle Center
Wed 02:26:26 PM 41.7383 -121.3294 342° North 355 409 40,000  Level Seattle Center
Wed 02:27:27 PM 41.8328 -121.3717 342° North 361 415 40,000  Level Seattle Center
Wed 02:28:28 PM 41.9311 -121.4167 341° North 376 433 40,000  Level Seattle Center
Wed 02:29:29 PM 42.0272 -121.4586 342° North 371 427 40,000  Level Seattle Center
Wed 02:30:30 PM 42.1250 -121.5039 341° North 372 428 40,000  Level Seattle Center
Wed 02:31:31 PM 42.2211 -121.5469 342° North 372 428 40,000  Level Seattle Center
Wed 02:32:33 PM 42.3367 -121.5994 341° North 370 426 40,000  Level Seattle Center
Wed 02:33:34 PM 42.4328 -121.6425 342° North 367 422 40,000  Level Seattle Center
Wed 02:34:35 PM 42.5283 -121.6850 342° North 365 420 40,000  Level Seattle Center
Wed 02:35:36 PM 42.6256 -121.7292 342° North 370 426 40,000  Level Seattle Center
Wed 02:36:37 PM 42.7228 -121.7739 341° North 371 427 40,000  Level Seattle Center
Wed 02:37:38 PM 42.8200 -121.8217 340° North 374 430 40,000  Level Seattle Center
Wed 02:38:39 PM 42.9183 -121.8667 341° North 376 433 40,000  Level Seattle Center
Wed 02:39:41 PM 43.0175 -121.9133 341° North 378 435 40,000  Level Seattle Center
Wed 02:40:42 PM 43.1350 -121.9661 342° North 377 434 40,000  Level Seattle Center
Wed 02:41:43 PM 43.2342 -122.0133 341° North 377 434 40,000  Level Seattle Center
Wed 02:43:45 PM 43.4278 -122.1025 342° North 380 437 40,000  Level Seattle Center
Wed 02:44:46 PM 43.5281 -122.1506 341° North 383 441 40,000  Level Seattle Center
Wed 02:45:47 PM 43.6283 -122.1992 341° North 384 442 40,000  Level Seattle Center
Wed 02:46:49 PM 43.7292 -122.2458 342° North 384 442 40,000  Level Seattle Center
Wed 02:47:50 PM 43.8497 -122.3036 341° North 386 444 40,000  Level Seattle Center
Wed 02:48:51 PM 43.9492 -122.3522 341° North 383 441 40,000  Level Seattle Center
Wed 02:49:52 PM 44.0503 -122.4006 341° North 384 442 40,000  Level Seattle Center
Wed 02:50:53 PM 44.1519 -122.4489 341° North 388 447 40,000  Level Seattle Center
Wed 02:51:54 PM 44.2531 -122.4986 341° North 388 447 40,000  Level Seattle Center
Wed 02:52:56 PM 44.3533 -122.5475 341° North 388 447 40,000  Level Seattle Center
Wed 02:53:57 PM 44.4533 -122.5964 341° North 387 445 40,000  Level Seattle Center
Wed 02:54:58 PM 44.5533 -122.6458 341° North 386 444 40,000  Level Seattle Center
Wed 02:55:59 PM 44.6675 -122.7014 341° North 381 438 40,000  Level Seattle Center
Wed 02:57:00 PM 44.7656 -122.7506 340° North 380 437 40,000  Level Seattle Center
Wed 02:58:01 PM 44.8644 -122.7994 341° North 379 436 40,000  Level Seattle Center
Wed 02:59:02 PM 44.9628 -122.8506 340° North 379 436 40,000  Level Seattle Center
Wed 03:00:04 PM 45.0619 -122.8997 341° North 379 436 40,000  Level Seattle Center
Wed 03:01:05 PM 45.1608 -122.9481 341° North 380 437 40,000  Level Seattle Center
Wed 03:02:06 PM 45.2606 -122.9981 341° North 381 438 40,000  Level Seattle Center
Wed 03:03:07 PM 45.3600 -123.0475 341° North 382 440 40,000  Level Seattle Center
Wed 03:04:08 PM 45.4794 -123.1111 340° North 382 440 40,000  Level Seattle Center
Wed 03:05:09 PM 45.5806 -123.1619 341° North 384 442 40,000  Level Seattle Center
Wed 03:06:10 PM 45.6819 -123.2133 341° North 386 444 40,000  Level Seattle Center
Wed 03:07:11 PM 45.7831 -123.2664 340° North 388 447 40,000  Level Seattle Center
Wed 03:08:12 PM 45.8853 -123.3203 340° North 390 449 40,000  Level Seattle Center
Wed 03:09:14 PM 45.9883 -123.3722 341° North 392 451 40,000  Level Seattle Center
Wed 03:10:15 PM 46.0914 -123.4264 340° North 393 452 40,000  Level Seattle Center
Wed 03:11:16 PM 46.1953 -123.4811 340° North 395 455 40,000  Level Seattle Center
Wed 03:12:17 PM 46.2986 -123.5339 341° North 396 456 40,000  Level Seattle Center
Wed 03:13:18 PM 46.4011 -123.5906 339° North 396 456 40,000  Level Seattle Center
Wed 03:14:19 PM 46.5122 -123.6497 340° North 395 455 40,000  Level Seattle Center
Wed 03:15:20 PM 46.6144 -123.7017 341° North 393 452 40,000  Level Seattle Center
Wed 03:16:22 PM 46.7169 -123.7564 340° North 393 452 40,000  Level Seattle Center
Wed 03:17:23 PM 46.8192 -123.8108 340° North 392 451 40,000  Level Seattle Center
Wed 03:18:24 PM 46.9406 -123.8761 340° North 392 451 40,000  Level Seattle Center
Wed 03:19:25 PM 47.0414 -123.9311 340° North 391 450 40,000  Level Seattle Center
Wed 03:20:26 PM 47.1344 -123.9803 340° North 391 450 40,000  Level Seattle Center
Wed 03:21:27 PM 47.2369 -124.0358 340° North 392 451 40,000  Level Seattle Center
Wed 03:22:28 PM 47.3400 -124.0922 340° North 392 451 40,000  Level Seattle Center
Wed 03:23:30 PM 47.4425 -124.1489 340° North 392 451 40,000  Level Seattle Center
Wed 03:24:31 PM 47.5675 -124.2169 340° North 395 455 40,000  Level Seattle Center
Wed 03:25:32 PM 47.6714 -124.2739 340° North 397 457 40,000  Level Seattle Center
Wed 03:26:33 PM 47.7758 -124.3333 339° North 399 459 40,000  Level Seattle Center
Wed 03:27:34 PM 47.8819 -124.3914 340° North 402 463 40,000  Level Seattle Center
Wed 03:28:35 PM 47.9886 -124.4506 340° North 404 465 40,000  Level Seattle Center
Wed 03:29:37 PM 48.0950 -124.5111 339° North 407 468 40,000  Level Seattle Center
Wed 03:30:38 PM 48.2022 -124.5714 339° North 409 471 40,000  Level Seattle Center
Wed 03:31:30 PM 48.2833 -124.6333 333° Northwest 410 472 40,000  Level Vancouver Center
Wed 03:32:30 PM 48.3833 -124.7333 326° Northwest 410 472 40,000  Level Vancouver Center
Wed 03:33:30 PM 48.4833 -124.8000 336° Northwest 410 472 40,000  Level Vancouver Center
Wed 03:34:30 PM 48.5833 -124.9167 322° Northwest 410 472 40,000  Level Vancouver Center
Wed 03:35:30 PM 48.6833 -125.0167 327° Northwest 410 472 40,000  Level Vancouver Center
Wed 03:36:30 PM 48.7667 -125.0833 332° Northwest 410 472 40,000  Level Vancouver Center
Wed 03:37:30 PM 48.8667 -125.2000 323° Northwest 410 472 40,000  Level Vancouver Center
Wed 03:38:30 PM 48.9667 -125.3000 327° Northwest 410 472 40,000  Level Vancouver Center
Wed 03:39:30 PM 49.0500 -125.3833 327° Northwest 420 483 40,000  Level Vancouver Center
Wed 03:40:30 PM 49.1667 -125.4833 331° Northwest 410 472 40,000  Level Vancouver Center
Wed 03:41:30 PM 49.2500 -125.5667 327° Northwest 410 472 40,000  Level Vancouver Center
Wed 03:42:30 PM 49.3333 -125.6667 322° Northwest 420 483 40,000  Level Vancouver Center
Wed 03:43:30 PM 49.4333 -125.7833 323° Northwest 410 472 40,000  Level Vancouver Center
Wed 03:44:30 PM 49.5333 -125.8500 337° Northwest 410 472 40,000  Level Vancouver Center
Wed 03:45:30 PM 49.6333 -125.9667 323° Northwest 420 483 40,000  Level Vancouver Center
Wed 03:46:30 PM 49.7167 -126.0500 327° Northwest 410 472 40,000  Level Vancouver Center
Wed 03:47:30 PM 49.8333 -126.1500 331° Northwest 410 472 40,000  Level Vancouver Center
Wed 03:48:30 PM 49.9167 -126.2667 318° Northwest 410 472 40,000  Level Vancouver Center
Wed 03:49:30 PM 50.0167 -126.3500 332° Northwest 410 472 40,000  Level Vancouver Center
Wed 03:50:30 PM 50.1167 -126.4500 327° Northwest 410 472 40,000  Level Vancouver Center
Wed 03:51:30 PM 50.2000 -126.5667 318° Northwest 410 472 40,000  Level Vancouver Center
Wed 03:52:30 PM 50.3000 -126.6500 332° Northwest 420 483 40,000  Level Vancouver Center
Wed 03:53:30 PM 50.4000 -126.7667 323° Northwest 420 483 40,000  Level Vancouver Center
Wed 03:54:30 PM 50.5000 -126.8667 328° Northwest 420 483 40,000  Level Vancouver Center
Wed 03:55:30 PM 50.5833 -126.9500 328° Northwest 420 483 40,000  Level Vancouver Center
Wed 03:56:30 PM 50.6833 -127.0667 324° Northwest 420 483 40,000  Level Vancouver Center
Wed 03:57:30 PM 50.7833 -127.1833 324° Northwest 420 483 40,000  Level Vancouver Center
Wed 03:58:30 PM 50.8667 -127.2667 328° Northwest 420 483 40,000  Level Vancouver Center
Wed 03:59:30 PM 50.9667 -127.3833 324° Northwest 420 483 40,000  Level Vancouver Center
Wed 04:00:30 PM 51.0667 -127.5000 324° Northwest 420 483 40,000  Level Vancouver Center
Wed 04:01:30 PM 51.1667 -127.5833 332° Northwest 420 483 40,000  Level Vancouver Center
Wed 04:02:30 PM 51.2667 -127.7000 324° Northwest 420 483 40,000  Level Vancouver Center
Wed 04:03:30 PM 51.3500 -127.8167 319° Northwest 420 483 40,000  Level Vancouver Center
Wed 04:04:30 PM 51.4500 -127.9333 324° Northwest 420 483 40,000  Level Vancouver Center
Wed 04:05:30 PM 51.5500 -128.0167 333° Northwest 420 483 40,000  Level Vancouver Center
Wed 04:06:30 PM 51.6500 -128.1333 324° Northwest 420 483 40,000  Level Vancouver Center
Wed 04:07:30 PM 51.7500 -128.2500 324° Northwest 420 483 40,000  Level Vancouver Center
Wed 04:08:30 PM 51.8333 -128.3333 328° Northwest 420 483 40,000  Level Vancouver Center
Wed 04:09:30 PM 51.9333 -128.4500 324° Northwest 420 483 40,000  Level Vancouver Center
Wed 04:10:30 PM 52.0333 -128.5833 321° Northwest 420 483 40,000  Level Vancouver Center
Wed 04:11:30 PM 52.1333 -128.7000 324° Northwest 430 495 40,000  Level Vancouver Center
Wed 04:12:30 PM 52.2167 -128.7833 329° Northwest 430 495 40,000  Level Vancouver Center
Wed 04:13:30 PM 52.3167 -128.9000 325° Northwest 430 495 40,000  Level Vancouver Center
Wed 04:14:30 PM 52.4167 -129.0333 321° Northwest 430 495 40,000  Level Vancouver Center
Wed 04:15:30 PM 52.5167 -129.1500 325° Northwest 430 495 40,000  Level Vancouver Center
Wed 04:16:30 PM 52.6000 -129.2500 324° Northwest 430 495 40,000  Level Vancouver Center
Wed 04:17:30 PM 52.7167 -129.3667 329° Northwest 430 495 40,000  Level Vancouver Center
Wed 04:18:30 PM 52.8000 -129.4833 320° Northwest 430 495 40,000  Level Vancouver Center
Wed 04:19:30 PM 52.9000 -129.6167 321° Northwest 430 495 40,000  Level Vancouver Center
Wed 04:20:30 PM 53.0000 -129.7167 329° Northwest 430 495 40,000  Level Vancouver Center
Wed 04:21:30 PM 53.1000 -129.8333 325° Northwest 430 495 40,000  Level Vancouver Center
Wed 04:22:30 PM 53.1833 -129.9667 316° Northwest 420 483 40,000  Level Vancouver Center
Wed 04:23:30 PM 53.2667 -130.0500 329° Northwest 430 495 40,000  Level Vancouver Center
Wed 04:24:30 PM 53.3833 -130.1833 326° Northwest 430 495 40,000  Level Vancouver Center
Wed 04:25:30 PM 53.4667 -130.3000 320° Northwest 430 495 40,000  Level Vancouver Center
Wed 04:26:30 PM 53.5667 -130.4333 322° Northwest 430 495 40,000  Level Vancouver Center
Wed 04:27:30 PM 53.6667 -130.5333 329° Northwest 430 495 40,000  Level Vancouver Center
Wed 04:28:30 PM 53.7500 -130.6667 317° Northwest 430 495 40,000  Level Vancouver Center
Wed 04:29:30 PM 53.8500 -130.7833 325° Northwest 430 495 40,000  Level Vancouver Center
Wed 04:30:30 PM 53.9333 -130.9167 317° Northwest 430 495 40,000  Level Vancouver Center
Wed 04:31:30 PM 54.0333 -131.0167 330° Northwest 430 495 40,000  Level Vancouver Center
Wed 04:32:30 PM 54.1333 -131.1500 322° Northwest 430 495 40,000  Level Vancouver Center
Wed 04:33:30 PM 54.2167 -131.2833 317° Northwest 430 495 40,000  Level Vancouver Center
Wed 04:34:30 PM 54.3167 -131.4167 322° Northwest 430 495 40,000  Level Vancouver Center
Wed 04:35:30 PM 54.4000 -131.5167 325° Northwest 430 495 40,000  Level Vancouver Center
Wed 04:36:30 PM 54.5000 -131.6500 322° Northwest 430 495 40,000  Level Vancouver Center
Wed 04:37:30 PM 54.5833 -131.7833 317° Northwest 430 495 40,000  Level Vancouver Center
Wed 04:38:56 PM 54.7167 -131.9167 330° Northwest 430 495 40,000  Level Anchorage Center
Wed 04:39:56 PM 54.8167 -132.0333 326° Northwest 430 495 40,000  Level Anchorage Center
Wed 04:40:30 PM 54.8667 -132.1500 307° West 430 495 40,000  Level Vancouver Center
Wed 04:41:30 PM 54.9833 -132.3000 324° Northwest 430 495 40,000  Level Vancouver Center
Wed 04:42:30 PM 55.0500 -132.4333 311° West 430 495 40,000  Level Vancouver Center
Wed 04:43:30 PM 55.1500 -132.5667 323° Northwest 430 495 40,000  Level Vancouver Center
Wed 04:44:30 PM 55.2500 -132.6833 326° Northwest 430 495 40,000  Level Vancouver Center
Wed 04:45:30 PM 55.3333 -132.8167 318° Northwest 430 495 40,000  Level Vancouver Center
Wed 04:46:30 PM 55.4333 -132.9500 323° Northwest 430 495 40,000  Level Vancouver Center
Wed 04:47:30 PM 55.5167 -133.0667 322° Northwest 430 495 40,000  Level Vancouver Center
Wed 04:48:30 PM 55.6167 -133.2000 323° Northwest 430 495 40,000  Level Vancouver Center
Wed 04:49:30 PM 55.7000 -133.3500 315° West 430 495 40,000  Level Vancouver Center
Wed 04:50:30 PM 55.8167 -133.4833 327° Northwest 430 495 40,000  Level Vancouver Center
Wed 04:51:00 PM 55.8500 -133.5000 344° North 430 495 40,000  Level Anchorage Center
Wed 04:52:00 PM 55.9333 -133.6333 318° Northwest 430 495 40,000  Level Anchorage Center
Wed 04:53:00 PM 56.0333 -133.7667 323° Northwest 430 495 40,000  Level Anchorage Center
Wed 04:54:01 PM 56.1333 -133.9167 320° Northwest 430 495 40,000  Level Anchorage Center
Wed 04:55:01 PM 56.2167 -134.0500 318° Northwest 430 495 40,000  Level Anchorage Center
Wed 04:56:02 PM 56.3167 -134.1833 324° Northwest 430 495 40,000  Level Anchorage Center
Wed 04:57:02 PM 56.4000 -134.3333 315° West 440 506 40,000  Level Anchorage Center
Wed 04:58:02 PM 56.5000 -134.4667 324° Northwest 430 495 40,000  Level Anchorage Center
Wed 04:59:03 PM 56.5833 -134.6167 315° West 430 495 40,000  Level Anchorage Center
Wed 05:00:03 PM 56.6833 -134.7500 324° Northwest 430 495 40,000  Level Anchorage Center
Wed 05:01:04 PM 56.7667 -134.8833 319° Northwest 430 495 40,000  Level Anchorage Center
Wed 05:02:04 PM 56.8667 -135.0500 318° Northwest 440 506 40,000  Level Anchorage Center
Wed 05:03:04 PM 56.9667 -135.1833 324° Northwest 440 506 40,000  Level Anchorage Center
Wed 05:04:05 PM 57.0500 -135.3333 316° Northwest 430 495 40,000  Level Anchorage Center
Wed 05:05:04 PM 57.1500 -135.4667 324° Northwest 430 495 40,000  Level Anchorage Center
Wed 05:06:05 PM 57.2333 -135.6000 319° Northwest 440 506 40,000  Level Anchorage Center
Wed 05:07:05 PM 57.3333 -135.7667 318° Northwest 440 506 40,000  Level Anchorage Center
Wed 05:08:06 PM 57.4167 -135.9167 316° Northwest 430 495 40,000  Level Anchorage Center
Wed 05:09:06 PM 57.5167 -136.0667 321° Northwest 430 495 40,000  Level Anchorage Center
Wed 05:10:06 PM 57.6000 -136.2167 316° Northwest 440 506 40,000  Level Anchorage Center
Wed 05:11:07 PM 57.6833 -136.3667 316° Northwest 430 495 40,000  Level Anchorage Center
Wed 05:12:07 PM 57.7833 -136.5167 321° Northwest 430 495 40,000  Level Anchorage Center
Wed 05:13:07 PM 57.8667 -136.6667 316° Northwest 430 495 40,000  Level Anchorage Center
Wed 05:14:08 PM 57.9667 -136.8167 322° Northwest 430 495 40,000  Level Anchorage Center
Wed 05:15:08 PM 58.0500 -136.9833 313° West 440 506 40,000  Level Anchorage Center
Wed 05:16:09 PM 58.1500 -137.1333 322° Northwest 430 495 40,000  Level Anchorage Center
Wed 05:17:09 PM 58.2333 -137.2833 317° Northwest 440 506 40,000  Level Anchorage Center
Wed 05:18:09 PM 58.3333 -137.4500 319° Northwest 430 495 40,000  Level Anchorage Center
Wed 05:19:10 PM 58.4167 -137.6000 317° Northwest 430 495 40,000  Level Anchorage Center
Wed 05:20:10 PM 58.5000 -137.7667 314° West 440 506 40,000  Level Anchorage Center
Wed 05:21:10 PM 58.6000 -137.9167 322° Northwest 440 506 40,000  Level Anchorage Center
Wed 05:22:11 PM 58.6833 -138.0833 314° West 430 495 40,000  Level Anchorage Center
Wed 05:23:11 PM 58.7667 -138.2500 314° West 440 506 40,000  Level Anchorage Center
Wed 05:24:12 PM 58.8667 -138.4167 319° Northwest 440 506 40,000  Level Anchorage Center
Wed 05:25:12 PM 58.9500 -138.5833 314° West 440 506 40,000  Level Anchorage Center
Wed 05:26:12 PM 59.0333 -138.7500 314° West 440 506 40,000  Level Anchorage Center
Wed 05:27:13 PM 59.1333 -138.9167 319° Northwest 440 506 40,000  Level Anchorage Center
Wed 05:28:13 PM 59.2167 -139.0833 314° West 440 506 40,000  Level Anchorage Center
Wed 05:29:13 PM 59.3000 -139.2500 314° West 440 506 40,000  Level Anchorage Center
Wed 05:30:14 PM 59.4000 -139.4333 317° Northwest 450 518 40,000  Level Anchorage Center
Wed 05:31:14 PM 59.4833 -139.6000 315° West 450 518 40,000  Level Anchorage Center
Wed 05:32:15 PM 59.5833 -139.7167 329° Northwest 440 506 40,000  Level Anchorage Center
Wed 05:33:15 PM 59.6833 -139.8500 326° Northwest 430 495 40,000  Level Anchorage Center
Wed 05:34:15 PM 59.7833 -139.9667 330° Northwest 450 518 40,000  Level Anchorage Center
Wed 05:35:16 PM 59.9000 -140.0833 333° Northwest 440 506 40,000  Level Anchorage Center
Wed 05:36:16 PM 59.9833 -140.2000 325° Northwest 440 506 40,000  Level Anchorage Center
Wed 05:37:16 PM 60.1000 -140.3333 330° Northwest 450 518 40,000  Level Anchorage Center
Wed 05:38:16 PM 60.2167 -140.4667 330° Northwest 440 506 40,000  Level Anchorage Center
Wed 05:39:17 PM 60.3167 -140.6000 327° Northwest 440 506 40,000  Level Anchorage Center
Wed 05:40:17 PM 60.4167 -140.7167 330° Northwest 440 506 40,000  Level Anchorage Center
Wed 05:41:17 PM 60.5333 -140.8500 331° Northwest 440 506 40,000  Level Anchorage Center
Wed 05:42:18 PM 60.6500 -141.0000 328° Northwest 440 506 40,000  Level Anchorage Center
Wed 05:43:18 PM 60.7500 -141.1333 327° Northwest 440 506 40,000  Level Anchorage Center
Wed 05:44:19 PM 60.8667 -141.2667 331° Northwest 440 506 40,000  Level Anchorage Center
Wed 05:45:19 PM 60.9667 -141.4000 327° Northwest 440 506 40,000  Level Anchorage Center
Wed 05:46:19 PM 61.0667 -141.5333 327° Northwest 440 506 40,000  Level Anchorage Center
Wed 05:47:20 PM 61.1833 -141.6500 334° Northwest 450 518 40,000  Level Anchorage Center
Wed 05:48:20 PM 61.2833 -141.8000 324° Northwest 440 506 40,000  Level Anchorage Center
Wed 05:49:20 PM 61.3833 -141.9333 327° Northwest 450 518 40,000  Level Anchorage Center
Wed 05:50:21 PM 61.5000 -142.0667 331° Northwest 450 518 40,000  Level Anchorage Center
Wed 05:51:21 PM 61.6000 -142.2000 328° Northwest 440 506 40,000  Level Anchorage Center
Wed 05:52:22 PM 61.6833 -142.3333 323° Northwest 440 506 40,000  Level Anchorage Center
Wed 05:53:22 PM 61.8000 -142.4667 332° Northwest 450 518 40,000  Level Anchorage Center
Wed 05:54:22 PM 61.9167 -142.5833 335° Northwest 460 529 40,000  Level Anchorage Center
Wed 05:55:23 PM 62.0500 -142.5333 10° North 460 529 40,000  Level Anchorage Center
Wed 05:56:23 PM 62.1833 -142.4667 13° North 450 518 40,000  Level Anchorage Center
Wed 05:57:24 PM 62.3000 -142.3833 18° North 440 506 40,000  Level Anchorage Center
Wed 05:58:24 PM 62.4167 -142.3000 18° North 450 518 40,000  Level Anchorage Center
Wed 05:59:25 PM 62.5333 -142.2167 18° North 450 518 40,000  Level Anchorage Center
Wed 06:00:25 PM 62.6500 -142.1167 21° North 450 518 40,000  Level Anchorage Center
Wed 06:01:25 PM 62.7500 -142.0500 17° North 440 506 40,000  Level Anchorage Center
Wed 06:02:25 PM 62.8833 -141.9667 16° North 470 541 40,000  Level Anchorage Center
Wed 06:03:26 PM 63.0167 -142.0500 344° North 460 529 40,000  Level Anchorage Center
Wed 06:04:26 PM 63.0833 -142.2667 304° West 440 506 40,000 -450 Level Anchorage Center
Wed 06:05:26 PM 63.1500 -142.5000 302° West 460 529 39,100 -1,636 Descending Anchorage Center
Wed 06:06:27 PM 63.2167 -142.7333 302° West 460 529 36,700 -2,380 Descending Anchorage Center
Wed 06:07:27 PM 63.3000 -142.9667 309° West 450 518 34,300 -2,380 Descending Anchorage Center
Wed 06:08:28 PM 63.3667 -143.1833 305° West 450 518 31,900 -2,331 Descending Anchorage Center
Wed 06:09:28 PM 63.4500 -143.4167 309° West 440 506 29,600 -2,350 Descending Anchorage Center
Wed 06:10:28 PM 63.5167 -143.6500 303° West 450 518 27,200 -2,281 Descending Anchorage Center
Wed 06:11:29 PM 63.5833 -143.8667 305° West 430 495 25,000 -1,091 Descending Anchorage Center
Wed 06:12:29 PM 63.6667 -144.0833 311° West 420 483 25,000  Level Anchorage Center
Wed 06:13:30 PM 63.7333 -144.3167 303° West 420 483 25,000  Level Anchorage Center
Wed 06:14:30 PM 63.8000 -144.5167 307° West 410 472 25,000  Level Anchorage Center
Wed 06:15:30 PM 63.8500 -144.7167 300° West 410 472 25,000  Level Anchorage Center
Wed 06:16:31 PM 63.9333 -144.9500 309° West 420 483 25,000  Level Anchorage Center
Wed 06:17:31 PM 63.9833 -145.1667 298° West 420 483 25,000  Level Anchorage Center
Wed 06:18:31 PM 64.0667 -145.4000 309° West 420 483 25,000 -446 Level Anchorage Center
Wed 06:19:32 PM 64.1167 -145.6000 300° West 420 483 24,100 -1,537 Descending Anchorage Center
Wed 06:20:32 PM 64.1833 -145.8333 303° West 400 460 21,900 -2,150 Descending Anchorage Center
Wed 06:21:32 PM 64.2500 -146.0500 305° West 400 460 19,800 -2,100 Descending Anchorage Center
Wed 06:23:00 PM 64.3445 -146.3482 305° West  Level FlightAware Approximate
Wed 06:30:00 PM 64.7858 -147.7932 300° West  Level FlightAware Approximate
Wed 06:31:00 PM 64.8000 -147.8500 300° West  Level FlightAware Approximate
Wed 06:32:00 PM 64.8151 -147.8564 300° West  Level Estimated
Wed 06:33:00 PM 64.8151 -147.8564 300° West  Level Estimated
Wed 06:34:00 PM 64.8151 -147.8564 300° West  Level Estimated
Wed 06:35:00 PM 64.8151 -147.8564 300° West  Level Estimated
Wed 06:36:00 PM 64.8151 -147.8564 300° West  Level Estimated
Wed 06:37:00 PM 64.8151 -147.8564 300° West  Level Estimated
Wed 06:38:00 PM 64.8151 -147.8564 300° West  Level Estimated
Wed 06:39:00 PM 64.8151 -147.8564 300° West  Level Estimated
Wed 06:40:00 PM 64.8151 -147.8564 300° West  Level Estimated
Wed 06:41:00 PM 64.8151 -147.8564 300° West  Level Estimated
Wed 06:42:00 PM 64.8151 -147.8564 300° West  Level Estimated
Wed 06:43:00 PM 64.8151 -147.8564 300° West  Level Estimated
Wed 06:44:00 PM 64.8151 -147.8564 300° West  Level Estimated
Wed 06:45:00 PM 64.8151 -147.8564 300° West  Level Estimated
Wed 06:46:00 PM 64.8151 -147.8564 300° West  Level Estimated
Wed 06:47:00 PM 64.8151 -147.8564 300° West  Level Estimated

Login

Don't have an account? Register now (free) for customized features, flight alerts, and more!